sensor_id;sensor_type;location;lat;lon;timestamp;P1;P2;P0
34176;PMS7003;20450;49.074;9.158;2023-04-24T00:01:37;33.75;33.75;32.50
34176;PMS7003;20450;49.074;9.158;2023-04-24T00:04:04;55.50;50.00;42.50
34176;PMS7003;20450;49.074;9.158;2023-04-24T00:06:32;33.00;30.75;27.75
34176;PMS7003;20450;49.074;9.158;2023-04-24T00:08:59;25.00;25.00;24.75
34176;PMS7003;20450;49.074;9.158;2023-04-24T00:11:26;72.00;63.40;60.40
34176;PMS7003;20450;49.074;9.158;2023-04-24T00:13:54;21.00;19.50;17.25
34176;PMS7003;20450;49.074;9.158;2023-04-24T00:16:22;3.50;3.50;3.50
34176;PMS7003;20450;49.074;9.158;2023-04-24T00:18:49;2.50;2.50;2.50
34176;PMS7003;20450;49.074;9.158;2023-04-24T00:21:16;1.75;1.75;1.75
34176;PMS7003;20450;49.074;9.158;2023-04-24T00:23:43;7.00;7.00;7.00
34176;PMS7003;20450;49.074;9.158;2023-04-24T00:26:10;23.50;22.75;21.25
34176;PMS7003;20450;49.074;9.158;2023-04-24T00:28:40;54.00;49.00;42.75
34176;PMS7003;20450;49.074;9.158;2023-04-24T00:31:07;84.50;71.00;63.25
34176;PMS7003;20450;49.074;9.158;2023-04-24T00:33:35;22.25;20.75;19.00
34176;PMS7003;20450;49.074;9.158;2023-04-24T00:36:03;14.50;14.50;13.25
34176;PMS7003;20450;49.074;9.158;2023-04-24T00:38:30;17.50;17.00;15.50
34176;PMS7003;20450;49.074;9.158;2023-04-24T00:43:51;61.00;53.25;47.00
34176;PMS7003;20450;49.074;9.158;2023-04-24T00:46:18;0.00;0.00;0.00
34176;PMS7003;20450;49.074;9.158;2023-04-24T00:48:48;0.00;0.00;0.00
34176;PMS7003;20450;49.074;9.158;2023-04-24T00:54:14;0.00;0.00;0.00
34176;PMS7003;20450;49.074;9.158;2023-04-24T00:56:42;0.00;0.00;0.00
34176;PMS7003;20450;49.074;9.158;2023-04-24T00:59:10;4.50;4.50;4.50
34176;PMS7003;20450;49.074;9.158;2023-04-24T01:01:39;94.67;82.67;79.00
34176;PMS7003;20450;49.074;9.158;2023-04-24T01:04:08;43.50;42.75;37.50
34176;PMS7003;20450;49.074;9.158;2023-04-24T01:06:38;50.25;48.00;41.00
34176;PMS7003;20450;49.074;9.158;2023-04-24T01:09:07;59.25;53.50;45.00
34176;PMS7003;20450;49.074;9.158;2023-04-24T01:11:37;36.00;36.00;33.00
34176;PMS7003;20450;49.074;9.158;2023-04-24T01:14:04;75.00;63.75;52.50
34176;PMS7003;20450;49.074;9.158;2023-04-24T01:16:32;61.75;53.75;47.75
34176;PMS7003;20450;49.074;9.158;2023-04-24T01:19:00;0.00;0.00;0.00
34176;PMS7003;20450;49.074;9.158;2023-04-24T01:21:28;0.00;0.00;0.00
34176;PMS7003;20450;49.074;9.158;2023-04-24T01:24:01;0.00;0.00;0.00
34176;PMS7003;20450;49.074;9.158;2023-04-24T01:26:29;0.00;0.00;0.00
34176;PMS7003;20450;49.074;9.158;2023-04-24T01:28:56;0.00;0.00;0.00
34176;PMS7003;20450;49.074;9.158;2023-04-24T01:31:24;0.00;0.00;0.00
34176;PMS7003;20450;49.074;9.158;2023-04-24T01:33:52;0.00;0.00;0.00
34176;PMS7003;20450;49.074;9.158;2023-04-24T01:36:22;0.00;0.00;0.00
34176;PMS7003;20450;49.074;9.158;2023-04-24T01:38:53;0.00;0.00;0.00
34176;PMS7003;20450;49.074;9.158;2023-04-24T01:41:22;0.00;0.00;0.00
34176;PMS7003;20450;49.074;9.158;2023-04-24T01:43:51;0.00;0.00;0.00
34176;PMS7003;20450;49.074;9.158;2023-04-24T01:46:19;0.00;0.00;0.00
34176;PMS7003;20450;49.074;9.158;2023-04-24T01:48:47;1.00;0.00;0.00
34176;PMS7003;20450;49.074;9.158;2023-04-24T01:51:15;0.00;0.00;0.00
34176;PMS7003;20450;49.074;9.158;2023-04-24T01:53:42;0.00;0.00;0.00
34176;PMS7003;20450;49.074;9.158;2023-04-24T01:56:09;0.00;0.00;0.00
34176;PMS7003;20450;49.074;9.158;2023-04-24T01:58:37;0.00;0.00;0.00
34176;PMS7003;20450;49.074;9.158;2023-04-24T02:01:06;0.00;0.00;0.00
34176;PMS7003;20450;49.074;9.158;2023-04-24T02:04:09;0.00;0.00;0.00
34176;PMS7003;20450;49.074;9.158;2023-04-24T02:06:37;0.00;0.00;0.00
34176;PMS7003;20450;49.074;9.158;2023-04-24T02:09:04;0.00;0.00;0.00
34176;PMS7003;20450;49.074;9.158;2023-04-24T02:11:32;0.00;0.00;0.00
34176;PMS7003;20450;49.074;9.158;2023-04-24T02:14:00;0.00;0.00;0.00
34176;PMS7003;20450;49.074;9.158;2023-04-24T02:16:28;0.00;0.00;0.00
34176;PMS7003;20450;49.074;9.158;2023-04-24T02:18:56;0.00;0.00;0.00
34176;PMS7003;20450;49.074;9.158;2023-04-24T02:21:24;0.00;0.00;0.00
34176;PMS7003;20450;49.074;9.158;2023-04-24T02:23:50;0.00;0.00;0.00
34176;PMS7003;20450;49.074;9.158;2023-04-24T02:26:17;0.00;0.00;0.00
34176;PMS7003;20450;49.074;9.158;2023-04-24T02:28:44;0.00;0.00;0.00
34176;PMS7003;20450;49.074;9.158;2023-04-24T02:31:13;0.00;0.00;0.00
34176;PMS7003;20450;49.074;9.158;2023-04-24T02:33:40;0.00;0.00;0.00
34176;PMS7003;20450;49.074;9.158;2023-04-24T02:36:07;0.00;0.00;0.00
34176;PMS7003;20450;49.074;9.158;2023-04-24T02:38:34;0.00;0.00;0.00
34176;PMS7003;20450;49.074;9.158;2023-04-24T02:41:01;0.00;0.00;0.00
34176;PMS7003;20450;49.074;9.158;2023-04-24T02:43:28;0.00;0.00;0.00
34176;PMS7003;20450;49.074;9.158;2023-04-24T02:45:56;0.00;0.00;0.00
34176;PMS7003;20450;49.074;9.158;2023-04-24T02:48:25;0.00;0.00;0.00
34176;PMS7003;20450;49.074;9.158;2023-04-24T02:50:52;0.00;0.00;0.00
34176;PMS7003;20450;49.074;9.158;2023-04-24T02:53:19;0.00;0.00;0.00
34176;PMS7003;20450;49.074;9.158;2023-04-24T02:55:46;0.00;0.00;0.00
34176;PMS7003;20450;49.074;9.158;2023-04-24T02:58:13;0.00;0.00;0.00
34176;PMS7003;20450;49.074;9.158;2023-04-24T03:00:40;0.00;0.00;0.00
34176;PMS7003;20450;49.074;9.158;2023-04-24T03:03:07;6.00;6.00;0.00
34176;PMS7003;20450;49.074;9.158;2023-04-24T03:05:36;0.00;0.00;0.00
34176;PMS7003;20450;49.074;9.158;2023-04-24T03:12:02;0.00;0.00;0.00
34176;PMS7003;20450;49.074;9.158;2023-04-24T03:15:02;0.00;0.00;0.00
34176;PMS7003;20450;49.074;9.158;2023-04-24T03:18:00;0.00;0.00;0.00
34176;PMS7003;20450;49.074;9.158;2023-04-24T03:20:28;0.75;0.00;0.00
34176;PMS7003;20450;49.074;9.158;2023-04-24T03:22:57;0.00;0.00;0.00
34176;PMS7003;20450;49.074;9.158;2023-04-24T03:25:24;0.00;0.00;0.00
34176;PMS7003;20450;49.074;9.158;2023-04-24T03:27:52;0.00;0.00;0.00
34176;PMS7003;20450;49.074;9.158;2023-04-24T03:30:36;0.00;0.00;0.00
34176;PMS7003;20450;49.074;9.158;2023-04-24T03:33:04;0.00;0.00;0.00
34176;PMS7003;20450;49.074;9.158;2023-04-24T03:35:35;0.00;0.00;0.00
34176;PMS7003;20450;49.074;9.158;2023-04-24T03:38:08;0.00;0.00;0.00
34176;PMS7003;20450;49.074;9.158;2023-04-24T03:40:57;0.00;0.00;0.00
34176;PMS7003;20450;49.074;9.158;2023-04-24T03:43:38;0.00;0.00;0.00
34176;PMS7003;20450;49.074;9.158;2023-04-24T03:46:06;0.00;0.00;0.00
34176;PMS7003;20450;49.074;9.158;2023-04-24T03:48:37;2.50;2.50;0.00
34176;PMS7003;20450;49.074;9.158;2023-04-24T03:51:06;0.00;0.00;0.00
34176;PMS7003;20450;49.074;9.158;2023-04-24T03:53:37;0.00;0.00;0.00
34176;PMS7003;20450;49.074;9.158;2023-04-24T03:56:05;0.00;0.00;0.00
34176;PMS7003;20450;49.074;9.158;2023-04-24T03:58:32;0.00;0.00;0.00
34176;PMS7003;20450;49.074;9.158;2023-04-24T04:00:59;0.00;0.00;0.00
34176;PMS7003;20450;49.074;9.158;2023-04-24T04:03:47;0.00;0.00;0.00
34176;PMS7003;20450;49.074;9.158;2023-04-24T04:06:18;0.00;0.00;0.00
34176;PMS7003;20450;49.074;9.158;2023-04-24T04:08:47;0.00;0.00;0.00
34176;PMS7003;20450;49.074;9.158;2023-04-24T04:11:14;0.00;0.00;0.00
34176;PMS7003;20450;49.074;9.158;2023-04-24T04:13:41;0.00;0.00;0.00
34176;PMS7003;20450;49.074;9.158;2023-04-24T04:16:08;0.00;0.00;0.00
34176;PMS7003;20450;49.074;9.158;2023-04-24T04:18:36;0.00;0.00;0.00
34176;PMS7003;20450;49.074;9.158;2023-04-24T04:21:05;0.00;0.00;0.00
34176;PMS7003;20450;49.074;9.158;2023-04-24T04:23:33;0.00;0.00;0.00
34176;PMS7003;20450;49.074;9.158;2023-04-24T04:26:08;0.00;0.00;0.00
34176;PMS7003;20450;49.074;9.158;2023-04-24T04:28:48;19.75;19.75;19.50
34176;PMS7003;20450;49.074;9.158;2023-04-24T04:31:15;25.75;25.75;25.75
34176;PMS7003;20450;49.074;9.158;2023-04-24T04:33:42;56.25;51.25;43.50
34176;PMS7003;20450;49.074;9.158;2023-04-24T04:36:10;69.50;58.75;55.50
34176;PMS7003;20450;49.074;9.158;2023-04-24T04:38:42;76.40;67.80;64.80
34176;PMS7003;20450;49.074;9.158;2023-04-24T04:41:41;67.25;60.50;59.25
34176;PMS7003;20450;49.074;9.158;2023-04-24T04:47:36;82.50;69.00;64.75
34176;PMS7003;20450;49.074;9.158;2023-04-24T04:50:04;57.00;51.75;44.00
34176;PMS7003;20450;49.074;9.158;2023-04-24T04:52:32;85.00;72.00;64.00
34176;PMS7003;20450;49.074;9.158;2023-04-24T04:55:12;57.00;52.00;43.00
34176;PMS7003;20450;49.074;9.158;2023-04-24T04:58:10;0.00;0.00;0.00
34176;PMS7003;20450;49.074;9.158;2023-04-24T05:00:37;0.00;0.00;0.00
34176;PMS7003;20450;49.074;9.158;2023-04-24T05:03:15;0.00;0.00;0.00
34176;PMS7003;20450;49.074;9.158;2023-04-24T05:05:52;0.00;0.00;0.00
34176;PMS7003;20450;49.074;9.158;2023-04-24T05:08:20;1.00;1.00;1.00
34176;PMS7003;20450;49.074;9.158;2023-04-24T05:10:53;0.75;0.75;0.75
34176;PMS7003;20450;49.074;9.158;2023-04-24T05:13:22;1.50;1.50;1.50
34176;PMS7003;20450;49.074;9.158;2023-04-24T05:16:09;1.50;1.50;1.50
34176;PMS7003;20450;49.074;9.158;2023-04-24T05:18:37;0.50;0.50;0.50
34176;PMS7003;20450;49.074;9.158;2023-04-24T05:21:06;19.00;19.00;19.00
34176;PMS7003;20450;49.074;9.158;2023-04-24T05:23:34;0.00;0.00;0.00
34176;PMS7003;20450;49.074;9.158;2023-04-24T05:26:01;0.00;0.00;0.00
34176;PMS7003;20450;49.074;9.158;2023-04-24T05:28:34;0.00;0.00;0.00
34176;PMS7003;20450;49.074;9.158;2023-04-24T05:31:06;0.00;0.00;0.00
34176;PMS7003;20450;49.074;9.158;2023-04-24T05:33:34;0.00;0.00;0.00
34176;PMS7003;20450;49.074;9.158;2023-04-24T05:36:01;0.00;0.00;0.00
34176;PMS7003;20450;49.074;9.158;2023-04-24T05:38:29;61.00;54.00;46.00
34176;PMS7003;20450;49.074;9.158;2023-04-24T05:40:56;27.00;27.00;27.00
34176;PMS7003;20450;49.074;9.158;2023-04-24T05:43:23;34.00;34.00;33.00
34176;PMS7003;20450;49.074;9.158;2023-04-24T05:45:51;67.00;58.00;53.80
34176;PMS7003;20450;49.074;9.158;2023-04-24T05:48:18;0.00;0.00;0.00
34176;PMS7003;20450;49.074;9.158;2023-04-24T05:50:45;0.00;0.00;0.00
34176;PMS7003;20450;49.074;9.158;2023-04-24T05:53:12;0.00;0.00;0.00
34176;PMS7003;20450;49.074;9.158;2023-04-24T05:55:39;0.00;0.00;0.00
34176;PMS7003;20450;49.074;9.158;2023-04-24T05:58:06;0.00;0.00;0.00
34176;PMS7003;20450;49.074;9.158;2023-04-24T06:00:35;0.00;0.00;0.00
34176;PMS7003;20450;49.074;9.158;2023-04-24T06:05:54;0.00;0.00;0.00
34176;PMS7003;20450;49.074;9.158;2023-04-24T06:08:22;0.00;0.00;0.00
34176;PMS7003;20450;49.074;9.158;2023-04-24T06:10:48;0.00;0.00;0.00
34176;PMS7003;20450;49.074;9.158;2023-04-24T06:13:18;6.33;6.33;6.33
34176;PMS7003;20450;49.074;9.158;2023-04-24T06:16:05;2.00;2.00;2.00
34176;PMS7003;20450;49.074;9.158;2023-04-24T06:21:34;8.50;8.50;8.50
34176;PMS7003;20450;49.074;9.158;2023-04-24T06:24:02;0.50;0.50;0.50
34176;PMS7003;20450;49.074;9.158;2023-04-24T06:26:30;116.50;116.50;116.50
34176;PMS7003;20450;49.074;9.158;2023-04-24T06:28:57;1.50;1.50;1.50
34176;PMS7003;20450;49.074;9.158;2023-04-24T06:31:24;4.33;4.33;4.33
34176;PMS7003;20450;49.074;9.158;2023-04-24T06:33:51;11.00;11.00;11.00
34176;PMS7003;20450;49.074;9.158;2023-04-24T06:36:19;9.50;9.50;9.50
34176;PMS7003;20450;49.074;9.158;2023-04-24T06:38:46;15.75;15.75;15.75
34176;PMS7003;20450;49.074;9.158;2023-04-24T06:41:13;3.67;3.67;3.67
34176;PMS7003;20450;49.074;9.158;2023-04-24T06:43:40;0.00;0.00;0.00
34176;PMS7003;20450;49.074;9.158;2023-04-24T06:46:07;0.00;0.00;0.00
34176;PMS7003;20450;49.074;9.158;2023-04-24T06:48:35;0.00;0.00;0.00
34176;PMS7003;20450;49.074;9.158;2023-04-24T06:51:08;0.00;0.00;0.00
34176;PMS7003;20450;49.074;9.158;2023-04-24T06:53:47;0.00;0.00;0.00
34176;PMS7003;20450;49.074;9.158;2023-04-24T06:56:31;0.00;0.00;0.00
34176;PMS7003;20450;49.074;9.158;2023-04-24T06:59:07;0.00;0.00;0.00
34176;PMS7003;20450;49.074;9.158;2023-04-24T07:01:43;0.00;0.00;0.00
34176;PMS7003;20450;49.074;9.158;2023-04-24T07:04:10;0.00;0.00;0.00
34176;PMS7003;20450;49.074;9.158;2023-04-24T07:06:38;0.00;0.00;0.00
34176;PMS7003;20450;49.074;9.158;2023-04-24T07:09:06;0.00;0.00;0.00
34176;PMS7003;20450;49.074;9.158;2023-04-24T07:11:33;0.00;0.00;0.00
34176;PMS7003;20450;49.074;9.158;2023-04-24T07:14:00;0.00;0.00;0.00
34176;PMS7003;20450;49.074;9.158;2023-04-24T07:16:27;0.00;0.00;0.00
34176;PMS7003;20450;49.074;9.158;2023-04-24T07:18:54;0.00;0.00;0.00
34176;PMS7003;20450;49.074;9.158;2023-04-24T07:21:22;0.00;0.00;0.00
34176;PMS7003;20450;49.074;9.158;2023-04-24T07:23:49;0.00;0.00;0.00
34176;PMS7003;20450;49.074;9.158;2023-04-24T07:26:17;0.00;0.00;0.00
34176;PMS7003;20450;49.074;9.158;2023-04-24T07:28:45;0.00;0.00;0.00
34176;PMS7003;20450;49.074;9.158;2023-04-24T07:34:06;0.00;0.00;0.00
34176;PMS7003;20450;49.074;9.158;2023-04-24T07:36:34;0.00;0.00;0.00
34176;PMS7003;20450;49.074;9.158;2023-04-24T07:39:15;0.00;0.00;0.00
34176;PMS7003;20450;49.074;9.158;2023-04-24T07:44:56;2.33;2.33;2.33
34176;PMS7003;20450;49.074;9.158;2023-04-24T07:47:42;3.00;3.00;3.00
34176;PMS7003;20450;49.074;9.158;2023-04-24T07:50:09;1.67;1.00;1.00
34176;PMS7003;20450;49.074;9.158;2023-04-24T07:52:39;0.00;0.00;0.00
34176;PMS7003;20450;49.074;9.158;2023-04-24T07:55:31;2.25;2.25;2.25
34176;PMS7003;20450;49.074;9.158;2023-04-24T07:58:03;0.75;0.75;0.75
34176;PMS7003;20450;49.074;9.158;2023-04-24T08:00:30;1.25;1.25;1.25
34176;PMS7003;20450;49.074;9.158;2023-04-24T08:02:57;0.00;0.00;0.00
34176;PMS7003;20450;49.074;9.158;2023-04-24T08:05:25;0.00;0.00;0.00
34176;PMS7003;20450;49.074;9.158;2023-04-24T08:07:52;0.00;0.00;0.00
34176;PMS7003;20450;49.074;9.158;2023-04-24T08:10:20;0.50;0.50;0.50
34176;PMS7003;20450;49.074;9.158;2023-04-24T08:12:51;0.00;0.00;0.00
34176;PMS7003;20450;49.074;9.158;2023-04-24T08:15:19;0.50;0.25;0.25
34176;PMS7003;20450;49.074;9.158;2023-04-24T08:17:47;0.00;0.00;0.00
34176;PMS7003;20450;49.074;9.158;2023-04-24T08:20:14;0.25;0.25;0.25
34176;PMS7003;20450;49.074;9.158;2023-04-24T08:22:41;0.25;0.25;0.25
34176;PMS7003;20450;49.074;9.158;2023-04-24T08:25:14;2.00;1.00;1.00
34176;PMS7003;20450;49.074;9.158;2023-04-24T08:27:45;0.50;0.50;0.50
34176;PMS7003;20450;49.074;9.158;2023-04-24T08:30:15;0.00;0.00;0.00
34176;PMS7003;20450;49.074;9.158;2023-04-24T08:43:40;0.00;0.00;0.00
34176;PMS7003;20450;49.074;9.158;2023-04-24T08:58:09;0.00;0.00;0.00
34176;PMS7003;20450;49.074;9.158;2023-04-24T09:00:39;0.00;0.00;0.00
34176;PMS7003;20450;49.074;9.158;2023-04-24T09:03:09;1.33;0.00;0.00
34176;PMS7003;20450;49.074;9.158;2023-04-24T09:05:37;0.00;0.00;0.00
34176;PMS7003;20450;49.074;9.158;2023-04-24T09:08:20;0.00;0.00;0.00
34176;PMS7003;20450;49.074;9.158;2023-04-24T09:11:02;0.00;0.00;0.00
34176;PMS7003;20450;49.074;9.158;2023-04-24T09:13:41;0.00;0.00;0.00
34176;PMS7003;20450;49.074;9.158;2023-04-24T09:22:29;5.00;1.00;0.00
34176;PMS7003;20450;49.074;9.158;2023-04-24T09:24:59;0.00;0.00;0.00
34176;PMS7003;20450;49.074;9.158;2023-04-24T09:27:30;0.00;0.00;0.00
34176;PMS7003;20450;49.074;9.158;2023-04-24T09:29:59;0.00;0.00;0.00
34176;PMS7003;20450;49.074;9.158;2023-04-24T09:32:27;0.00;0.00;0.00
34176;PMS7003;20450;49.074;9.158;2023-04-24T09:35:05;0.00;0.00;0.00
34176;PMS7003;20450;49.074;9.158;2023-04-24T09:37:38;8.00;8.00;0.00
34176;PMS7003;20450;49.074;9.158;2023-04-24T09:40:11;0.20;0.20;0.00
34176;PMS7003;20450;49.074;9.158;2023-04-24T09:42:45;1.00;1.00;1.00
34176;PMS7003;20450;49.074;9.158;2023-04-24T09:45:19;0.00;0.00;0.00
34176;PMS7003;20450;49.074;9.158;2023-04-24T09:47:51;0.00;0.00;0.00
34176;PMS7003;20450;49.074;9.158;2023-04-24T09:50:22;0.00;0.00;0.00
34176;PMS7003;20450;49.074;9.158;2023-04-24T09:52:55;0.00;0.00;0.00
34176;PMS7003;20450;49.074;9.158;2023-04-24T09:59:22;1.00;1.00;0.00
34176;PMS7003;20450;49.074;9.158;2023-04-24T10:01:53;0.00;0.00;0.00
34176;PMS7003;20450;49.074;9.158;2023-04-24T10:04:21;0.00;0.00;0.00
34176;PMS7003;20450;49.074;9.158;2023-04-24T10:06:51;7.00;7.00;0.50
34176;PMS7003;20450;49.074;9.158;2023-04-24T10:09:21;0.00;0.00;0.00
34176;PMS7003;20450;49.074;9.158;2023-04-24T10:11:50;0.00;0.00;0.00
34176;PMS7003;20450;49.074;9.158;2023-04-24T10:14:20;0.00;0.00;0.00
34176;PMS7003;20450;49.074;9.158;2023-04-24T10:21:42;0.00;0.00;0.00
34176;PMS7003;20450;49.074;9.158;2023-04-24T10:24:11;0.00;0.00;0.00
34176;PMS7003;20450;49.074;9.158;2023-04-24T10:31:12;0.00;0.00;0.00
34176;PMS7003;20450;49.074;9.158;2023-04-24T10:33:42;0.00;0.00;0.00
34176;PMS7003;20450;49.074;9.158;2023-04-24T10:36:12;0.00;0.00;0.00
34176;PMS7003;20450;49.074;9.158;2023-04-24T10:41:40;0.00;0.00;0.00
34176;PMS7003;20450;49.074;9.158;2023-04-24T10:44:08;0.00;0.00;0.00
34176;PMS7003;20450;49.074;9.158;2023-04-24T10:46:37;0.00;0.00;0.00
34176;PMS7003;20450;49.074;9.158;2023-04-24T10:49:06;0.00;0.00;0.00
34176;PMS7003;20450;49.074;9.158;2023-04-24T10:54:47;0.75;0.75;0.75
34176;PMS7003;20450;49.074;9.158;2023-04-24T10:57:26;1.25;1.25;1.25
34176;PMS7003;20450;49.074;9.158;2023-04-24T11:00:13;0.00;0.00;0.00
34176;PMS7003;20450;49.074;9.158;2023-04-24T11:02:45;0.00;0.00;0.00
34176;PMS7003;20450;49.074;9.158;2023-04-24T11:05:14;0.00;0.00;0.00
34176;PMS7003;20450;49.074;9.158;2023-04-24T11:10:39;1.00;0.00;0.00
34176;PMS7003;20450;49.074;9.158;2023-04-24T11:13:10;0.00;0.00;0.00
34176;PMS7003;20450;49.074;9.158;2023-04-24T11:15:38;0.00;0.00;0.00
34176;PMS7003;20450;49.074;9.158;2023-04-24T11:18:12;0.00;0.00;0.00
34176;PMS7003;20450;49.074;9.158;2023-04-24T11:20:41;0.00;0.00;0.00
34176;PMS7003;20450;49.074;9.158;2023-04-24T11:23:11;0.00;0.00;0.00
34176;PMS7003;20450;49.074;9.158;2023-04-24T11:25:42;0.00;0.00;0.00
34176;PMS7003;20450;49.074;9.158;2023-04-24T11:28:09;0.00;0.00;0.00
34176;PMS7003;20450;49.074;9.158;2023-04-24T11:30:41;0.00;0.00;0.00
34176;PMS7003;20450;49.074;9.158;2023-04-24T11:33:20;0.00;0.00;0.00
34176;PMS7003;20450;49.074;9.158;2023-04-24T11:35:54;0.00;0.00;0.00
34176;PMS7003;20450;49.074;9.158;2023-04-24T11:38:22;0.00;0.00;0.00
34176;PMS7003;20450;49.074;9.158;2023-04-24T11:40:52;0.00;0.00;0.00
34176;PMS7003;20450;49.074;9.158;2023-04-24T11:43:21;0.00;0.00;0.00
34176;PMS7003;20450;49.074;9.158;2023-04-24T11:45:50;0.00;0.00;0.00
34176;PMS7003;20450;49.074;9.158;2023-04-24T11:48:21;0.00;0.00;0.00
34176;PMS7003;20450;49.074;9.158;2023-04-24T11:50:49;0.00;0.00;0.00
34176;PMS7003;20450;49.074;9.158;2023-04-24T11:53:18;0.00;0.00;0.00
34176;PMS7003;20450;49.074;9.158;2023-04-24T11:55:46;1.00;0.00;0.00
34176;PMS7003;20450;49.074;9.158;2023-04-24T11:58:14;0.00;0.00;0.00
34176;PMS7003;20450;49.074;9.158;2023-04-24T12:00:55;0.00;0.00;0.00
34176;PMS7003;20450;49.074;9.158;2023-04-24T12:03:23;0.00;0.00;0.00
34176;PMS7003;20450;49.074;9.158;2023-04-24T12:05:50;0.00;0.00;0.00
34176;PMS7003;20450;49.074;9.158;2023-04-24T12:08:26;0.00;0.00;0.00
34176;PMS7003;20450;49.074;9.158;2023-04-24T12:10:54;0.00;0.00;0.00
34176;PMS7003;20450;49.074;9.158;2023-04-24T12:13:22;0.00;0.00;0.00
34176;PMS7003;20450;49.074;9.158;2023-04-24T12:15:53;0.00;0.00;0.00
34176;PMS7003;20450;49.074;9.158;2023-04-24T12:18:21;0.00;0.00;0.00
34176;PMS7003;20450;49.074;9.158;2023-04-24T12:20:49;0.00;0.00;0.00
34176;PMS7003;20450;49.074;9.158;2023-04-24T12:23:16;0.00;0.00;0.00
34176;PMS7003;20450;49.074;9.158;2023-04-24T12:25:59;0.00;0.00;0.00
34176;PMS7003;20450;49.074;9.158;2023-04-24T12:28:35;0.00;0.00;0.00
34176;PMS7003;20450;49.074;9.158;2023-04-24T12:31:05;0.00;0.00;0.00
34176;PMS7003;20450;49.074;9.158;2023-04-24T12:33:33;0.00;0.00;0.00
34176;PMS7003;20450;49.074;9.158;2023-04-24T12:36:01;0.75;0.00;0.00
34176;PMS7003;20450;49.074;9.158;2023-04-24T12:38:30;0.00;0.00;0.00
34176;PMS7003;20450;49.074;9.158;2023-04-24T12:41:04;0.00;0.00;0.00
34176;PMS7003;20450;49.074;9.158;2023-04-24T12:43:35;0.00;0.00;0.00
34176;PMS7003;20450;49.074;9.158;2023-04-24T12:46:03;0.00;0.00;0.00
34176;PMS7003;20450;49.074;9.158;2023-04-24T12:48:31;0.00;0.00;0.00
34176;PMS7003;20450;49.074;9.158;2023-04-24T12:50:59;0.00;0.00;0.00
34176;PMS7003;20450;49.074;9.158;2023-04-24T12:53:27;0.00;0.00;0.00
34176;PMS7003;20450;49.074;9.158;2023-04-24T12:59:43;0.00;0.00;0.00
34176;PMS7003;20450;49.074;9.158;2023-04-24T13:02:10;0.00;0.00;0.00
34176;PMS7003;20450;49.074;9.158;2023-04-24T13:04:38;0.00;0.00;0.00
34176;PMS7003;20450;49.074;9.158;2023-04-24T13:07:05;0.33;0.00;0.00
34176;PMS7003;20450;49.074;9.158;2023-04-24T13:09:33;0.00;0.00;0.00
34176;PMS7003;20450;49.074;9.158;2023-04-24T13:12:01;1.75;0.00;0.00
34176;PMS7003;20450;49.074;9.158;2023-04-24T13:14:28;0.00;0.00;0.00
34176;PMS7003;20450;49.074;9.158;2023-04-24T13:16:56;0.00;0.00;0.00
34176;PMS7003;20450;49.074;9.158;2023-04-24T13:19:24;0.00;0.00;0.00
34176;PMS7003;20450;49.074;9.158;2023-04-24T13:21:53;0.00;0.00;0.00
34176;PMS7003;20450;49.074;9.158;2023-04-24T13:24:22;0.00;0.00;0.00
34176;PMS7003;20450;49.074;9.158;2023-04-24T13:26:49;0.00;0.00;0.00
34176;PMS7003;20450;49.074;9.158;2023-04-24T13:29:16;0.00;0.00;0.00
34176;PMS7003;20450;49.074;9.158;2023-04-24T13:31:43;0.00;0.00;0.00
34176;PMS7003;20450;49.074;9.158;2023-04-24T13:34:12;0.00;0.00;0.00
34176;PMS7003;20450;49.074;9.158;2023-04-24T13:36:39;0.00;0.00;0.00
34176;PMS7003;20450;49.074;9.158;2023-04-24T13:39:07;0.00;0.00;0.00
34176;PMS7003;20450;49.074;9.158;2023-04-24T13:41:34;0.00;0.00;0.00
34176;PMS7003;20450;49.074;9.158;2023-04-24T13:44:01;0.00;0.00;0.00
34176;PMS7003;20450;49.074;9.158;2023-04-24T13:46:28;0.00;0.00;0.00
34176;PMS7003;20450;49.074;9.158;2023-04-24T13:48:55;0.00;0.00;0.00
34176;PMS7003;20450;49.074;9.158;2023-04-24T13:51:24;0.00;0.00;0.00
34176;PMS7003;20450;49.074;9.158;2023-04-24T13:53:52;0.00;0.00;0.00
34176;PMS7003;20450;49.074;9.158;2023-04-24T13:56:19;0.00;0.00;0.00
34176;PMS7003;20450;49.074;9.158;2023-04-24T13:58:46;1.00;0.00;0.00
34176;PMS7003;20450;49.074;9.158;2023-04-24T14:01:13;0.00;0.00;0.00
34176;PMS7003;20450;49.074;9.158;2023-04-24T14:03:41;0.00;0.00;0.00
34176;PMS7003;20450;49.074;9.158;2023-04-24T14:06:09;0.00;0.00;0.00
34176;PMS7003;20450;49.074;9.158;2023-04-24T14:08:38;0.00;0.00;0.00
34176;PMS7003;20450;49.074;9.158;2023-04-24T14:11:05;0.00;0.00;0.00
34176;PMS7003;20450;49.074;9.158;2023-04-24T14:13:32;0.00;0.00;0.00
34176;PMS7003;20450;49.074;9.158;2023-04-24T14:16:00;0.00;0.00;0.00
34176;PMS7003;20450;49.074;9.158;2023-04-24T14:18:27;0.00;0.00;0.00
34176;PMS7003;20450;49.074;9.158;2023-04-24T14:20:54;0.00;0.00;0.00
34176;PMS7003;20450;49.074;9.158;2023-04-24T14:23:21;0.00;0.00;0.00
34176;PMS7003;20450;49.074;9.158;2023-04-24T14:25:49;0.00;0.00;0.00
34176;PMS7003;20450;49.074;9.158;2023-04-24T14:28:17;0.00;0.00;0.00
34176;PMS7003;20450;49.074;9.158;2023-04-24T14:30:44;0.00;0.00;0.00
34176;PMS7003;20450;49.074;9.158;2023-04-24T14:33:11;0.00;0.00;0.00
34176;PMS7003;20450;49.074;9.158;2023-04-24T14:35:39;0.00;0.00;0.00
34176;PMS7003;20450;49.074;9.158;2023-04-24T14:38:07;0.00;0.00;0.00
34176;PMS7003;20450;49.074;9.158;2023-04-24T14:40:35;0.00;0.00;0.00
34176;PMS7003;20450;49.074;9.158;2023-04-24T14:43:24;3.75;0.75;0.50
34176;PMS7003;20450;49.074;9.158;2023-04-24T14:45:50;0.00;0.00;0.00
34176;PMS7003;20450;49.074;9.158;2023-04-24T14:48:17;0.00;0.00;0.00
34176;PMS7003;20450;49.074;9.158;2023-04-24T14:50:45;0.00;0.00;0.00
34176;PMS7003;20450;49.074;9.158;2023-04-24T14:53:12;0.50;0.00;0.00
34176;PMS7003;20450;49.074;9.158;2023-04-24T14:55:39;2.00;2.00;1.00
34176;PMS7003;20450;49.074;9.158;2023-04-24T14:58:06;0.00;0.00;0.00
34176;PMS7003;20450;49.074;9.158;2023-04-24T15:00:35;0.00;0.00;0.00
34176;PMS7003;20450;49.074;9.158;2023-04-24T15:03:03;1.00;0.00;0.00
34176;PMS7003;20450;49.074;9.158;2023-04-24T15:05:31;0.00;0.00;0.00
34176;PMS7003;20450;49.074;9.158;2023-04-24T15:07:59;0.00;0.00;0.00
34176;PMS7003;20450;49.074;9.158;2023-04-24T15:10:26;0.00;0.00;0.00
34176;PMS7003;20450;49.074;9.158;2023-04-24T15:12:54;0.00;0.00;0.00
34176;PMS7003;20450;49.074;9.158;2023-04-24T15:15:21;1.00;0.00;0.00
34176;PMS7003;20450;49.074;9.158;2023-04-24T15:17:50;0.00;0.00;0.00
34176;PMS7003;20450;49.074;9.158;2023-04-24T15:20:17;0.00;0.00;0.00
34176;PMS7003;20450;49.074;9.158;2023-04-24T15:22:44;0.00;0.00;0.00
34176;PMS7003;20450;49.074;9.158;2023-04-24T15:25:11;0.00;0.00;0.00
34176;PMS7003;20450;49.074;9.158;2023-04-24T15:27:41;0.00;0.00;0.00
34176;PMS7003;20450;49.074;9.158;2023-04-24T15:30:10;0.00;0.00;0.00
34176;PMS7003;20450;49.074;9.158;2023-04-24T15:32:38;0.00;0.00;0.00
34176;PMS7003;20450;49.074;9.158;2023-04-24T15:35:07;0.00;0.00;0.00
34176;PMS7003;20450;49.074;9.158;2023-04-24T15:37:37;0.00;0.00;0.00
34176;PMS7003;20450;49.074;9.158;2023-04-24T15:40:05;0.75;0.00;0.00
34176;PMS7003;20450;49.074;9.158;2023-04-24T15:42:34;0.00;0.00;0.00
34176;PMS7003;20450;49.074;9.158;2023-04-24T15:45:02;0.00;0.00;0.00
34176;PMS7003;20450;49.074;9.158;2023-04-24T15:47:29;0.00;0.00;0.00
34176;PMS7003;20450;49.074;9.158;2023-04-24T15:49:58;0.00;0.00;0.00
34176;PMS7003;20450;49.074;9.158;2023-04-24T15:52:26;0.00;0.00;0.00
34176;PMS7003;20450;49.074;9.158;2023-04-24T15:54:54;0.25;0.00;0.00